Aviation Digital Data Service (ADDS)

Output produced by TAFs form (1809 UTC 05 May 2016)
found at http://www.aviationweather.gov/adds/tafs/
 
KABE 051731Z 0518/0618 04008KT P6SM OVC025 
     TEMPO 0521/0601 OVC035 
     FM060600 03006KT P6SM OVC018 
     FM060900 03008KT 4SM -RA BR OVC012 
     FM061100 03010KT 2SM RA BR OVC006